Wingett Run, Ohio
Current Conditions -  °F | °C
As of 5:53 PM on Friday 19 Dec 2014 (Local Time) from KPKB Reporting Station
Overcast Overcast  
Wind Chill: -4°   Ceiling: 2100
Heat Index: -1°   Visibility: 10mi
Dew Point: -5°   Wind: 5mph
Humidity: 75%   Direction: 230°SW
Pressure: 30.32"   Gusts: NA
Location:  39.54°N, 81.24°W
Report Text: KPKB 192253Z 23004KT 10SM OVC021 M01/M05 A3032 RMK AO2 SLP275 T10111050
Loading
Personal Weather Stations






























Interactive Weather Map New forecast layout! Learn more

10-Day Weather Forecast

Advertisements
Track Severe Weather on mobile